Time;durP1;ratioP1;P1;durP2;ratioP2;P2;SDS_P1;SDS_P2;PMS_P1;PMS_P2;Temp;Humidity;BMP_temperature;BMP_pressure;BME280_temperature;BME280_humidity;BME280_pressure;Samples;Min_cycle;Max_cycle;Signal;HPM_P1;HPM_P2
2021/12/26 00:00:41;;;;;;;11.67;10.57;;;8.40;75.40;;;-142.21;100.00;112049.66;5101737;28;20438;-75
2021/12/26 00:03:09;;;;;;;12.60;11.37;;;8.40;76.40;;;-142.21;100.00;112049.66;5113801;28;20454;-75
2021/12/26 00:05:36;;;;;;;12.73;11.43;;;8.50;75.60;;;-142.21;100.00;112049.66;5100970;28;20449;-75
2021/12/26 00:08:04;;;;;;;12.37;11.07;;;8.50;75.40;;;-142.21;100.00;112049.66;5111803;27;20441;-75
2021/12/26 00:10:31;;;;;;;14.70;13.23;;;8.50;75.30;;;-142.21;100.00;112049.66;5116016;27;20514;-75
2021/12/26 00:12:59;;;;;;;12.70;11.40;;;8.50;75.20;;;-142.21;100.00;112049.66;5116610;27;20448;-75
2021/12/26 00:15:28;;;;;;;13.67;12.27;;;8.50;75.20;;;-142.21;100.00;112049.66;5113669;28;20937;-74
2021/12/26 00:17:55;;;;;;;13.57;12.27;;;8.50;75.20;;;-142.21;100.00;112049.66;5119764;27;20469;-75
2021/12/26 00:20:23;;;;;;;12.93;11.63;;;8.50;75.40;;;-142.21;100.00;112049.66;5119316;27;20784;-75
2021/12/26 00:22:51;;;;;;;15.03;13.47;;;8.50;75.20;;;-142.21;100.00;112049.66;5105787;27;20554;-74
2021/12/26 00:25:18;;;;;;;13.03;11.47;;;8.50;75.10;;;-142.21;100.00;112049.66;5108234;28;20472;-74
2021/12/26 00:27:46;;;;;;;13.27;11.77;;;8.50;75.00;;;-142.21;100.00;112049.66;5114669;27;20540;-75
2021/12/26 00:30:18;;;;;;;13.17;11.97;;;8.50;74.80;;;-142.21;100.00;112049.66;5115931;27;20477;-75
2021/12/26 00:32:48;;;;;;;12.57;11.37;;;8.50;75.20;;;-142.21;100.00;112049.66;5117474;27;20444;-74
2021/12/26 00:35:19;;;;;;;12.93;11.73;;;8.50;75.10;;;-142.21;100.00;112049.66;5141690;27;20501;-75
2021/12/26 00:37:48;;;;;;;12.73;11.53;;;8.50;75.00;;;-142.21;100.00;112049.66;5116500;27;20468;-74
2021/12/26 00:40:19;;;;;;;12.33;11.20;;;8.50;74.90;;;-142.21;100.00;112049.66;5113074;28;20452;-75
2021/12/26 00:42:49;;;;;;;12.93;11.77;;;8.50;75.30;;;-142.21;100.00;112049.66;5118378;27;20443;-74
2021/12/26 00:45:18;;;;;;;13.40;12.07;;;8.50;75.10;;;-142.21;100.00;112049.66;5114410;28;20858;-75
2021/12/26 00:47:48;;;;;;;12.88;11.68;;;8.40;75.00;;;-142.21;100.00;112049.66;5114839;27;20454;-74
2021/12/26 00:50:22;;;;;;;13.37;12.07;;;8.40;75.90;;;-142.21;100.00;112049.66;5121076;27;20305;-74
2021/12/26 00:52:49;;;;;;;12.03;10.83;;;8.40;75.90;;;-142.21;100.00;112049.66;5115928;27;20444;-75
2021/12/26 00:55:18;;;;;;;12.50;11.20;;;8.40;75.20;;;-142.21;100.00;112049.66;5114082;27;20447;-75
2021/12/26 00:57:47;;;;;;;14.13;12.67;;;8.40;75.20;;;-142.21;100.00;112049.66;5115280;27;20449;-75
2021/12/26 01:00:19;;;;;;;12.33;11.23;;;8.30;75.40;;;-142.21;100.00;112049.66;5112885;27;20529;-74
2021/12/26 01:02:50;;;;;;;12.57;11.30;;;8.40;75.40;;;-142.21;100.00;112049.66;5114309;27;20521;-75
2021/12/26 01:05:19;;;;;;;12.43;11.23;;;8.40;75.30;;;-142.21;100.00;112049.66;5112812;27;20465;-75
2021/12/26 01:07:56;;;;;;;13.02;11.77;;;8.40;75.30;;;-142.21;100.00;112049.66;5114649;27;20536;-75
2021/12/26 01:10:25;;;;;;;12.00;10.90;;;8.50;75.40;;;-142.21;100.00;112049.66;5114590;27;20211;-74
2021/12/26 01:12:54;;;;;;;13.23;11.93;;;8.40;75.20;;;-142.21;100.00;112049.66;5104445;27;20965;-74
2021/12/26 01:15:24;;;;;;;12.00;10.87;;;8.50;75.30;;;-142.21;100.00;112049.66;5107948;28;20453;-75
2021/12/26 01:17:56;;;;;;;12.00;10.87;;;8.50;75.20;;;-142.21;100.00;112049.66;5102112;28;20454;-74
2021/12/26 01:20:41;;;;;;;13.10;11.90;;;8.50;75.10;;;-142.21;100.00;112049.66;5113754;27;20921;-75
2021/12/26 01:23:10;;;;;;;12.30;11.10;;;8.50;75.10;;;-142.21;100.00;112049.66;5109180;27;20442;-74
2021/12/26 01:25:38;;;;;;;12.47;11.27;;;8.50;75.20;;;-142.21;100.00;112049.66;5115222;27;20477;-74
2021/12/26 01:28:06;;;;;;;13.37;11.97;;;8.50;75.90;;;-142.21;100.00;112049.66;5113169;27;20442;-75
2021/12/26 01:30:38;;;;;;;13.30;11.90;;;8.40;75.10;;;-142.21;100.00;112049.66;5110850;28;20500;-74
2021/12/26 01:33:08;;;;;;;13.27;11.87;;;8.40;75.10;;;-142.21;100.00;112049.66;5114131;27;20441;-75
2021/12/26 01:35:35;;;;;;;12.60;11.40;;;8.40;75.10;;;-142.21;100.00;112049.66;5110451;27;21379;-75
2021/12/26 01:38:04;;;;;;;13.30;11.83;;;8.40;75.20;;;-142.21;100.00;112049.66;5109727;28;20477;-75
2021/12/26 01:40:35;;;;;;;13.47;12.23;;;8.40;75.30;;;-142.21;100.00;112049.66;5115059;27;20437;-74
2021/12/26 01:43:03;;;;;;;14.43;12.37;;;8.40;75.20;;;-142.21;100.00;112049.66;5137593;27;20479;-74
2021/12/26 01:45:31;;;;;;;12.33;11.13;;;8.40;75.40;;;-142.21;100.00;112049.66;5117815;27;20834;-74
2021/12/26 01:48:00;;;;;;;12.77;11.47;;;8.40;76.10;;;-142.21;100.00;112049.66;5120659;27;20468;-75
2021/12/26 01:50:30;;;;;;;13.87;12.47;;;8.30;75.50;;;-142.21;100.00;112049.66;5093561;28;20486;-75
2021/12/26 01:52:57;;;;;;;13.37;12.07;;;8.30;75.50;;;-142.21;100.00;112049.66;5114554;27;20739;-75
2021/12/26 01:55:37;;;;;;;14.37;12.87;;;8.40;75.70;;;-142.21;100.00;112049.66;5116263;27;20446;-74
2021/12/26 01:58:08;;;;;;;12.30;11.10;;;8.30;75.50;;;-142.21;100.00;112049.66;5122843;27;20465;-75
2021/12/26 02:00:37;;;;;;;12.53;11.33;;;8.40;75.60;;;-142.21;100.00;112049.66;5112381;28;20430;-74
2021/12/26 02:03:05;;;;;;;13.37;11.83;;;8.40;75.30;;;-142.21;100.00;112049.66;5107460;27;20457;-75
2021/12/26 02:05:34;;;;;;;12.87;11.57;;;8.40;75.20;;;-142.21;100.00;112049.66;5120408;27;20442;-74
2021/12/26 02:08:01;;;;;;;13.47;12.07;;;8.40;75.30;;;-142.21;100.00;112049.66;5107883;27;20524;-74
2021/12/26 02:10:29;;;;;;;13.47;11.67;;;8.40;75.40;;;-142.21;100.00;112049.66;5122882;27;20480;-75
2021/12/26 02:12:56;;;;;;;12.07;10.90;;;8.40;75.30;;;-142.21;100.00;112049.66;5113603;27;20441;-74
2021/12/26 02:15:24;;;;;;;12.30;11.10;;;8.40;75.40;;;-142.21;100.00;112049.66;5116869;27;20548;-74
2021/12/26 02:17:52;;;;;;;13.20;11.80;;;8.50;75.30;;;-142.21;100.00;112049.66;5119680;27;20451;-75
2021/12/26 02:20:34;;;;;;;13.27;11.87;;;8.50;76.00;;;-142.21;100.00;112049.66;5113599;27;20818;-74
2021/12/26 02:23:08;;;;;;;13.47;12.17;;;8.40;75.30;;;-142.21;100.00;112049.66;5115186;27;20442;-74
2021/12/26 02:28:22;;;;;;;13.57;11.80;;;8.30;75.20;;;-142.21;100.00;112049.66;5110617;28;20509;-75
2021/12/26 02:30:51;;;;;;;13.07;11.77;;;8.30;75.30;;;-142.21;100.00;112049.66;5109786;28;20483;-75
2021/12/26 02:33:19;;;;;;;12.67;11.37;;;8.30;75.60;;;-142.21;100.00;112049.66;5111749;28;20441;-75
2021/12/26 02:35:50;;;;;;;13.93;12.53;;;8.30;75.50;;;-142.21;100.00;112049.66;5112289;28;20466;-75
2021/12/26 02:38:18;;;;;;;13.77;12.17;;;8.30;75.60;;;-142.21;100.00;112049.66;5127900;28;20860;-75
2021/12/26 02:40:48;;;;;;;13.30;12.00;;;8.20;75.50;;;-142.21;100.00;112049.66;5114961;28;20495;-74
2021/12/26 02:43:18;;;;;;;14.20;12.73;;;8.20;75.50;;;-142.21;100.00;112049.66;5079197;28;20495;-75
2021/12/26 02:45:46;;;;;;;12.70;11.40;;;8.20;75.70;;;-142.21;100.00;112049.66;5115709;28;20454;-74
2021/12/26 02:48:13;;;;;;;13.90;12.50;;;8.20;75.70;;;-142.21;100.00;112049.66;5123161;28;20449;-75
2021/12/26 02:50:44;;;;;;;13.03;11.80;;;8.20;75.50;;;-142.21;100.00;112049.66;5113209;28;20520;-75
2021/12/26 02:53:20;;;;;;;12.67;11.47;;;8.20;75.80;;;-142.21;100.00;112049.66;5112195;28;20775;-74
2021/12/26 02:55:48;;;;;;;12.87;11.30;;;8.10;75.50;;;-142.21;100.00;112049.66;5120980;28;20912;-74
2021/12/26 02:58:15;;;;;;;14.25;12.75;;;8.10;76.30;;;-142.21;100.00;112049.66;5126809;28;21148;-75
2021/12/26 03:00:48;;;;;;;13.63;12.23;;;8.10;75.80;;;-142.21;100.00;112049.66;5111475;28;20730;-75
2021/12/26 03:03:15;;;;;;;12.57;11.27;;;8.10;76.20;;;-142.21;100.00;112049.66;5119138;28;20767;-75
2021/12/26 03:05:54;;;;;;;13.37;12.07;;;8.20;75.70;;;-142.21;100.00;112049.66;5116247;28;20451;-75
2021/12/26 03:08:23;;;;;;;12.23;11.03;;;8.20;76.10;;;-142.21;100.00;112049.66;5111136;28;20869;-74
2021/12/26 03:10:52;;;;;;;12.53;11.23;;;8.20;75.90;;;-142.21;100.00;112049.66;5132359;28;20480;-75
2021/12/26 03:13:20;;;;;;;12.37;11.27;;;8.20;75.80;;;-142.21;100.00;112049.66;5121719;28;20447;-74
2021/12/26 03:15:48;;;;;;;12.53;11.23;;;8.20;75.40;;;-142.21;100.00;112049.66;5118469;27;20461;-74
2021/12/26 03:18:16;;;;;;;11.97;10.63;;;8.30;75.80;;;-142.21;100.00;112049.66;5116801;27;20802;-75
2021/12/26 03:20:48;;;;;;;13.43;11.87;;;8.30;75.60;;;-142.21;100.00;112049.66;5119950;27;20528;-75
2021/12/26 03:23:20;;;;;;;13.57;11.87;;;8.30;75.50;;;-142.21;100.00;112049.66;5124907;27;20837;-75
2021/12/26 03:25:50;;;;;;;13.03;11.57;;;8.30;75.40;;;-142.21;100.00;112049.66;5115431;27;20434;-75
2021/12/26 03:28:18;;;;;;;13.67;12.27;;;8.30;75.70;;;-142.21;100.00;112049.66;5111702;28;20432;-74
2021/12/26 03:30:46;;;;;;;12.30;11.10;;;8.30;75.40;;;-142.21;100.00;112049.66;5111973;27;21023;-74
2021/12/26 03:33:14;;;;;;;12.73;11.53;;;8.30;75.50;;;-142.21;100.00;112049.66;5114910;27;20456;-74
2021/12/26 03:35:42;;;;;;;12.50;11.17;;;8.30;75.40;;;-142.21;100.00;112049.66;5111480;27;20470;-75
2021/12/26 03:38:13;;;;;;;12.87;11.57;;;8.20;75.30;;;-142.21;100.00;112049.66;5104224;27;20442;-75
2021/12/26 03:40:42;;;;;;;11.70;10.50;;;8.20;75.50;;;-142.21;100.00;112049.66;5116320;27;20913;-74
2021/12/26 03:43:11;;;;;;;13.40;12.10;;;8.20;76.20;;;-142.21;100.00;112049.66;5115831;27;20810;-75
2021/12/26 03:45:39;;;;;;;13.68;12.00;;;8.20;75.40;;;-142.21;100.00;112049.66;5110579;28;20465;-74
2021/12/26 03:48:07;;;;;;;12.47;11.27;;;8.20;75.40;;;-142.21;100.00;112049.66;5115485;27;20287;-74
2021/12/26 03:50:38;;;;;;;13.20;11.90;;;8.20;75.60;;;-142.21;100.00;112049.66;5097232;27;20429;-74
2021/12/26 03:53:06;;;;;;;12.13;11.00;;;8.20;75.60;;;-142.21;100.00;112049.66;5120250;27;20527;-75
2021/12/26 03:55:33;;;;;;;12.20;10.87;;;8.20;75.60;;;-142.21;100.00;112049.66;5123587;27;20539;-75
2021/12/26 03:58:00;;;;;;;12.27;10.97;;;8.20;75.60;;;-142.21;100.00;112049.66;5120399;27;20478;-74
2021/12/26 04:00:29;;;;;;;11.80;10.70;;;8.20;75.60;;;-142.21;100.00;112049.66;5131558;27;20445;-75
2021/12/26 04:02:57;;;;;;;12.57;11.37;;;8.30;75.40;;;-142.21;100.00;112049.66;5111412;27;20533;-74
2021/12/26 04:05:25;;;;;;;12.67;11.40;;;8.20;75.40;;;-142.21;100.00;112049.66;5114653;28;20477;-75
2021/12/26 04:07:53;;;;;;;12.13;10.83;;;8.20;75.10;;;-142.21;100.00;112049.66;5114484;27;20442;-75
2021/12/26 04:10:24;;;;;;;12.43;11.13;;;8.20;75.40;;;-142.21;100.00;112049.66;5120671;27;20529;-75
2021/12/26 04:12:54;;;;;;;12.38;11.07;;;8.20;75.30;;;-142.21;100.00;112049.66;5128032;27;20204;-74
2021/12/26 04:15:24;;;;;;;12.67;11.37;;;8.20;75.70;;;-142.21;100.00;112049.66;5116881;27;20260;-75
2021/12/26 04:21:34;;;;;;;12.20;11.00;;;8.20;75.20;;;-142.21;100.00;112049.66;5109893;28;20512;-75
2021/12/26 04:24:03;;;;;;;13.33;12.00;;;8.10;76.10;;;-142.21;100.00;112049.66;5114565;27;20446;-74
2021/12/26 04:26:31;;;;;;;13.03;11.70;;;8.20;75.80;;;-142.21;100.00;112049.66;5113579;28;21029;-75
2021/12/26 04:28:58;;;;;;;12.50;11.30;;;8.20;75.70;;;-142.21;100.00;112049.66;5099617;27;20446;-74
2021/12/26 04:31:25;;;;;;;12.60;11.30;;;8.20;75.60;;;-142.21;100.00;112049.66;5107293;28;20490;-74
2021/12/26 04:33:53;;;;;;;13.33;11.93;;;8.20;75.50;;;-142.21;100.00;112049.66;5115096;27;20433;-75
2021/12/26 04:36:21;;;;;;;13.70;12.27;;;8.20;75.20;;;-142.21;100.00;112049.66;5124745;27;20476;-75
2021/12/26 04:38:50;;;;;;;13.80;12.50;;;8.20;75.10;;;-142.21;100.00;112049.66;5125492;27;20499;-75
2021/12/26 04:41:17;;;;;;;12.23;11.03;;;8.10;75.20;;;-142.21;100.00;112049.66;5131421;27;20448;-75
2021/12/26 04:43:45;;;;;;;13.83;11.50;;;8.10;75.50;;;-142.21;100.00;112049.66;5113809;27;20958;-76
2021/12/26 04:46:12;;;;;;;12.90;11.70;;;8.10;75.60;;;-142.21;100.00;112049.66;5114298;28;20542;-74
2021/12/26 04:48:44;;;;;;;12.63;11.43;;;8.10;75.70;;;-142.21;100.00;112049.66;5115932;27;20759;-74
2021/12/26 04:51:13;;;;;;;12.07;10.80;;;8.10;75.60;;;-142.21;100.00;112049.66;5106693;27;20507;-74
2021/12/26 04:53:42;;;;;;;12.27;11.07;;;8.00;75.60;;;-142.21;100.00;112049.66;5115016;27;20433;-74
2021/12/26 04:56:11;;;;;;;12.27;11.07;;;8.10;75.80;;;-142.21;100.00;112049.66;5112355;28;20445;-74
2021/12/26 04:58:38;;;;;;;15.27;11.50;;;8.10;75.80;;;-142.21;100.00;112049.66;5113255;28;20536;-74
2021/12/26 05:01:06;;;;;;;13.83;12.43;;;8.10;75.70;;;-142.21;100.00;112049.66;5078110;28;20484;-74
2021/12/26 05:03:34;;;;;;;12.37;11.17;;;8.10;75.80;;;-142.21;100.00;112049.66;5124828;28;20525;-76
2021/12/26 05:06:01;;;;;;;14.53;12.30;;;8.10;75.70;;;-142.21;100.00;112049.66;5133481;28;20457;-75
2021/12/26 05:08:29;;;;;;;13.73;12.30;;;8.10;75.50;;;-142.21;100.00;112049.66;5115547;28;20444;-74
2021/12/26 05:10:56;;;;;;;13.73;12.27;;;8.10;75.60;;;-142.21;100.00;112049.66;5112694;28;20211;-75
2021/12/26 05:13:25;;;;;;;13.57;12.23;;;8.10;75.70;;;-142.21;100.00;112049.66;5113709;28;20456;-75
2021/12/26 05:15:52;;;;;;;12.50;11.30;;;8.10;75.50;;;-142.21;100.00;112049.66;5113291;28;20460;-75
2021/12/26 05:18:20;;;;;;;13.03;11.63;;;8.10;75.70;;;-142.21;100.00;112049.66;5112602;28;20532;-74
2021/12/26 05:20:47;;;;;;;13.17;11.77;;;8.20;75.70;;;-142.21;100.00;112049.66;5113763;28;20942;-74
2021/12/26 05:23:14;;;;;;;13.20;11.90;;;8.20;75.80;;;-142.21;100.00;112049.66;5112821;28;20450;-75
2021/12/26 05:25:42;;;;;;;14.40;12.90;;;8.20;75.60;;;-142.21;100.00;112049.66;5113667;28;20545;-74
2021/12/26 05:28:11;;;;;;;14.90;13.37;;;8.20;76.20;;;-142.21;100.00;112049.66;5113485;28;20446;-75
2021/12/26 05:30:40;;;;;;;14.27;12.77;;;8.20;75.20;;;-142.21;100.00;112049.66;5112341;28;20498;-74
2021/12/26 05:33:07;;;;;;;14.20;12.47;;;8.30;75.40;;;-142.21;100.00;112049.66;5114285;27;20999;-74
2021/12/26 05:35:35;;;;;;;13.97;12.50;;;8.30;75.20;;;-142.21;100.00;112049.66;5112843;27;20481;-74
2021/12/26 05:38:02;;;;;;;13.23;11.93;;;8.30;75.30;;;-142.21;100.00;112049.66;5104083;27;20446;-74
2021/12/26 05:40:29;;;;;;;13.37;11.97;;;8.30;75.00;;;-142.21;100.00;112049.66;5116730;27;20456;-74
2021/12/26 05:42:56;;;;;;;13.87;11.70;;;8.30;75.10;;;-142.21;100.00;112049.66;5092836;28;20445;-75
2021/12/26 05:45:24;;;;;;;14.03;12.57;;;8.20;74.70;;;-142.21;100.00;112049.66;5112457;28;20456;-75
2021/12/26 05:47:53;;;;;;;13.67;12.27;;;8.20;75.00;;;-142.21;100.00;112049.66;5121985;27;20460;-74
2021/12/26 05:50:22;;;;;;;13.50;11.83;;;8.20;75.20;;;-142.21;100.00;112049.66;5113615;27;20551;-74
2021/12/26 05:52:50;;;;;;;14.47;12.70;;;8.20;75.40;;;-142.21;100.00;112049.66;5112864;27;20477;-75
2021/12/26 05:55:19;;;;;;;13.10;11.80;;;8.20;75.10;;;-142.21;100.00;112049.66;5117373;27;20446;-75
2021/12/26 05:57:47;;;;;;;13.63;12.20;;;8.20;75.20;;;-142.21;100.00;112049.66;5115423;27;20453;-75
2021/12/26 06:00:19;;;;;;;12.57;11.27;;;8.20;75.20;;;-142.21;100.00;112049.66;5115484;27;20449;-74
2021/12/26 06:02:49;;;;;;;13.93;11.47;;;8.10;75.10;;;-142.21;100.00;112049.66;5107119;27;20446;-75
2021/12/26 06:05:18;;;;;;;13.30;11.90;;;8.10;75.00;;;-142.21;100.00;112049.66;5100983;27;20465;-75
2021/12/26 06:07:45;;;;;;;13.07;11.77;;;8.10;75.80;;;-142.21;100.00;112049.66;5114559;27;20445;-75
2021/12/26 06:10:13;;;;;;;12.90;11.60;;;8.10;75.30;;;-142.21;100.00;112049.66;5126431;27;20230;-75
2021/12/26 06:12:40;;;;;;;13.40;11.87;;;8.10;75.20;;;-142.21;100.00;112049.66;5115009;27;20499;-74
2021/12/26 06:15:08;;;;;;;12.77;11.53;;;8.10;75.20;;;-142.21;100.00;112049.66;5126779;27;20460;-73
2021/12/26 06:17:35;;;;;;;13.03;11.77;;;8.10;75.20;;;-142.21;100.00;112049.66;5120374;27;20455;-75
2021/12/26 06:20:03;;;;;;;13.83;12.43;;;8.10;75.40;;;-142.21;100.00;112049.66;5116056;28;20442;-75
2021/12/26 06:22:31;;;;;;;13.93;12.53;;;8.10;75.20;;;-142.21;100.00;112049.66;5119438;27;20444;-75
2021/12/26 06:24:58;;;;;;;12.47;11.20;;;8.10;75.00;;;-142.21;100.00;112049.66;5118757;27;20430;-75
2021/12/26 06:27:26;;;;;;;13.23;11.83;;;8.10;75.70;;;-142.21;100.00;112049.66;5112740;28;20548;-75
2021/12/26 06:29:53;;;;;;;13.60;12.20;;;8.10;75.10;;;-142.21;100.00;112049.66;5113255;28;20460;-75
2021/12/26 06:32:20;;;;;;;14.23;12.20;;;8.10;75.00;;;-142.21;100.00;112049.66;5115687;28;20481;-75
2021/12/26 06:34:47;;;;;;;13.40;12.00;;;8.20;75.00;;;-142.21;100.00;112049.66;5121392;28;20484;-75
2021/12/26 06:37:14;;;;;;;14.17;11.80;;;8.10;74.80;;;-142.21;100.00;112049.66;5124691;28;20548;-76
2021/12/26 06:39:43;;;;;;;13.33;12.03;;;8.10;74.80;;;-142.21;100.00;112049.66;5112477;28;20442;-75
2021/12/26 06:42:10;;;;;;;15.93;12.47;;;8.10;74.90;;;-142.21;100.00;112049.66;5113603;28;20798;-74
2021/12/26 06:44:37;;;;;;;15.30;13.40;;;8.10;74.80;;;-142.21;100.00;112049.66;5113500;28;20456;-75
2021/12/26 06:47:06;;;;;;;14.30;12.80;;;8.10;74.80;;;-142.21;100.00;112049.66;5120003;28;20283;-74
2021/12/26 06:49:33;;;;;;;12.63;11.33;;;8.20;75.10;;;-142.21;100.00;112049.66;5112057;28;20536;-74
2021/12/26 06:52:00;;;;;;;14.53;12.97;;;8.10;74.90;;;-142.21;100.00;112049.66;5115763;28;20826;-75
2021/12/26 06:54:28;;;;;;;14.37;12.63;;;8.20;75.00;;;-142.21;100.00;112049.66;5108492;27;20453;-75
2021/12/26 06:56:56;;;;;;;13.77;12.33;;;8.20;74.90;;;-142.21;100.00;112049.66;5113658;27;22015;-74
2021/12/26 06:59:23;;;;;;;14.20;12.27;;;8.20;74.80;;;-142.21;100.00;112049.66;5132040;27;20532;-75
2021/12/26 07:01:51;;;;;;;13.23;11.83;;;8.20;74.60;;;-142.21;100.00;112049.66;5107515;27;20451;-75
2021/12/26 07:04:18;;;;;;;12.80;11.50;;;8.30;74.60;;;-142.21;100.00;112049.66;5108304;27;20557;-75
2021/12/26 07:06:45;;;;;;;15.97;13.30;;;8.20;74.30;;;-142.21;100.00;112049.66;5111060;28;20452;-74
2021/12/26 07:09:12;;;;;;;14.87;13.13;;;8.20;74.40;;;-142.21;100.00;112049.66;5127852;27;20928;-74
2021/12/26 07:11:39;;;;;;;14.20;12.70;;;8.20;74.50;;;-142.21;100.00;112049.66;5115742;28;20448;-75
2021/12/26 07:14:08;;;;;;;14.70;13.17;;;8.20;74.50;;;-142.21;100.00;112049.66;5116608;27;20453;-75
2021/12/26 07:16:35;;;;;;;13.17;11.80;;;8.20;74.40;;;-142.21;100.00;112049.66;5121641;27;21072;-74
2021/12/26 07:19:03;;;;;;;13.80;12.30;;;8.20;74.60;;;-142.21;100.00;112049.66;5112345;27;20540;-75
2021/12/26 07:21:30;;;;;;;15.20;13.30;;;8.20;74.70;;;-142.21;100.00;112049.66;5116222;28;20552;-75
2021/12/26 07:23:57;;;;;;;14.87;13.37;;;8.20;74.70;;;-142.21;100.00;112049.66;5118350;27;20528;-75
2021/12/26 07:26:24;;;;;;;15.93;12.73;;;8.20;74.50;;;-142.21;100.00;112049.66;5121495;27;20457;-74
2021/12/26 07:28:51;;;;;;;13.07;11.70;;;8.20;74.80;;;-142.21;100.00;112049.66;5128927;27;20934;-75
2021/12/26 07:31:20;;;;;;;15.10;13.07;;;8.20;75.00;;;-142.21;100.00;112049.66;5119115;27;20460;-75
2021/12/26 07:33:47;;;;;;;14.77;13.13;;;8.10;74.70;;;-142.21;100.00;112049.66;5116593;27;20485;-75
2021/12/26 07:36:14;;;;;;;14.77;12.63;;;8.10;74.70;;;-142.21;100.00;112049.66;5118494;27;20473;-74
2021/12/26 07:38:42;;;;;;;17.73;13.50;;;8.20;75.00;;;-142.21;100.00;112049.66;5121139;27;20449;-74
2021/12/26 07:41:09;;;;;;;15.20;12.95;;;8.20;74.90;;;-142.21;100.00;112049.66;5115866;27;20445;-75
2021/12/26 07:43:36;;;;;;;13.40;11.50;;;8.20;74.90;;;-142.21;100.00;112049.66;5117016;27;20200;-75
2021/12/26 07:46:03;;;;;;;15.20;13.30;;;8.30;74.90;;;-142.21;100.00;112049.66;5114926;27;20551;-75
2021/12/26 07:48:32;;;;;;;15.43;13.23;;;8.20;74.70;;;-142.21;100.00;112049.66;5116109;27;20503;-75
2021/12/26 07:50:59;;;;;;;13.57;12.07;;;8.30;74.90;;;-142.21;100.00;112049.66;5119453;27;20446;-75
2021/12/26 07:53:26;;;;;;;14.20;12.70;;;8.30;75.00;;;-142.21;100.00;112049.66;5125672;27;20561;-75
2021/12/26 07:55:53;;;;;;;15.50;13.50;;;8.30;74.80;;;-142.21;100.00;112049.66;5132818;27;20469;-75
2021/12/26 07:58:21;;;;;;;14.65;13.15;;;8.30;74.80;;;-142.21;100.00;112049.66;5132696;27;20226;-74
2021/12/26 08:00:48;;;;;;;15.53;13.90;;;8.30;74.70;;;-142.21;100.00;112049.66;5115890;27;20564;-75
2021/12/26 08:03:18;;;;;;;14.70;13.13;;;8.30;74.70;;;-142.21;100.00;112049.66;5111427;27;20434;-74
2021/12/26 08:05:47;;;;;;;14.27;12.77;;;8.30;74.80;;;-142.21;100.00;112049.66;5121450;27;20442;-74
2021/12/26 08:08:14;;;;;;;14.50;13.03;;;8.30;75.00;;;-142.21;100.00;112049.66;5116575;27;20533;-74
2021/12/26 08:10:41;;;;;;;16.73;13.30;;;8.30;75.00;;;-142.21;100.00;112049.66;5121023;27;21296;-74
2021/12/26 08:13:09;;;;;;;14.90;13.40;;;8.40;75.00;;;-142.21;100.00;112049.66;5115659;27;20486;-74
2021/12/26 08:15:36;;;;;;;14.25;12.80;;;8.40;75.50;;;-142.21;100.00;112049.66;5114578;28;20464;-74
2021/12/26 08:18:04;;;;;;;15.55;13.73;;;8.40;74.80;;;-142.21;100.00;112049.66;5132443;27;20552;-74
2021/12/26 08:20:31;;;;;;;14.47;12.97;;;8.30;74.50;;;-142.21;100.00;112049.66;5123907;27;20283;-75
2021/12/26 08:23:01;;;;;;;14.93;13.13;;;8.40;74.80;;;-142.21;100.00;112049.66;5132145;27;20535;-74
2021/12/26 08:25:28;;;;;;;17.77;14.67;;;8.40;75.70;;;-142.21;100.00;112049.66;5114569;28;20441;-73
2021/12/26 08:27:56;;;;;;;15.03;13.37;;;8.40;74.70;;;-142.21;100.00;112049.66;5115603;27;20510;-74
2021/12/26 08:30:24;;;;;;;14.57;13.07;;;8.40;75.10;;;-142.21;100.00;112049.66;5117330;27;20969;-74
2021/12/26 08:32:54;;;;;;;15.03;13.20;;;8.40;74.90;;;-142.21;100.00;112049.66;5119117;27;20974;-73
2021/12/26 08:35:21;;;;;;;14.83;13.17;;;8.40;74.60;;;-142.21;100.00;112049.66;5117493;27;21055;-74
2021/12/26 08:37:49;;;;;;;13.77;12.23;;;8.40;74.80;;;-142.21;100.00;112049.66;5106987;27;20532;-74
2021/12/26 08:40:17;;;;;;;15.93;14.23;;;8.40;75.00;;;-142.21;100.00;112049.66;5114591;28;20449;-74
2021/12/26 08:42:45;;;;;;;17.00;14.63;;;8.40;75.00;;;-142.21;100.00;112049.66;5115276;27;20448;-75
2021/12/26 08:45:12;;;;;;;14.67;13.17;;;8.50;75.10;;;-142.21;100.00;112049.66;5124535;27;20455;-75
2021/12/26 08:47:40;;;;;;;15.73;13.27;;;8.40;74.80;;;-142.21;100.00;112049.66;5116832;27;20485;-74
2021/12/26 08:50:10;;;;;;;15.70;13.77;;;8.40;74.80;;;-142.21;100.00;112049.66;5116116;27;20438;-74
2021/12/26 08:52:39;;;;;;;15.57;13.23;;;8.40;74.90;;;-142.21;100.00;112049.66;5102975;27;20473;-75
2021/12/26 08:55:09;;;;;;;14.57;13.07;;;8.40;75.20;;;-142.21;100.00;112049.66;5121665;27;20445;-75
2021/12/26 08:57:37;;;;;;;15.67;12.40;;;8.50;75.30;;;-142.21;100.00;112049.66;5116754;27;20442;-75
2021/12/26 09:00:13;;;;;;;14.87;13.23;;;8.50;75.40;;;-142.21;100.00;112049.66;5118280;27;20528;-75
2021/12/26 09:02:40;;;;;;;15.03;13.43;;;8.50;75.70;;;-142.21;100.00;112049.66;5117266;27;20436;-75
2021/12/26 09:05:10;;;;;;;14.57;12.53;;;8.50;75.10;;;-142.21;100.00;112049.66;5113993;27;20568;-75
2021/12/26 09:07:38;;;;;;;16.50;13.97;;;8.60;75.20;;;-142.21;100.00;112049.66;5114784;27;20448;-75
2021/12/26 09:10:07;;;;;;;13.83;12.43;;;8.60;75.20;;;-142.21;100.00;112049.66;5114721;27;20544;-74
2021/12/26 09:12:35;;;;;;;16.47;14.17;;;8.60;75.10;;;-142.21;100.00;112049.66;5113522;28;20829;-75
2021/12/26 09:15:06;;;;;;;15.43;13.40;;;8.60;75.30;;;-142.21;100.00;112049.66;5113474;28;20453;-75
2021/12/26 09:17:34;;;;;;;15.43;13.40;;;8.60;75.60;;;-142.21;100.00;112049.66;5113629;27;20501;-75
2021/12/26 09:20:01;;;;;;;14.67;12.80;;;8.60;75.10;;;-142.21;100.00;112049.66;5115405;27;20441;-75
2021/12/26 09:22:28;;;;;;;14.47;13.07;;;8.70;75.30;;;-142.21;100.00;112049.66;5113228;27;20443;-75
2021/12/26 09:24:55;;;;;;;14.80;13.20;;;8.70;75.40;;;-142.21;100.00;112049.66;5114562;27;20593;-75
2021/12/26 09:27:23;;;;;;;15.03;13.53;;;8.80;75.50;;;-142.21;100.00;112049.66;5117847;27;20523;-75
2021/12/26 09:29:50;;;;;;;14.20;12.70;;;8.80;75.20;;;-142.21;100.00;112049.66;5118524;27;20453;-74
2021/12/26 09:32:18;;;;;;;16.10;14.20;;;8.80;76.00;;;-142.21;100.00;112049.66;5115812;27;20448;-75
2021/12/26 09:34:45;;;;;;;15.00;13.37;;;8.90;75.20;;;-142.21;100.00;112049.66;5114863;28;20472;-75
2021/12/26 09:37:14;;;;;;;14.80;13.30;;;8.90;75.10;;;-142.21;100.00;112049.66;5120561;28;20438;-75
2021/12/26 09:39:41;;;;;;;16.10;14.40;;;8.90;75.00;;;-142.21;100.00;112049.66;5127877;27;20454;-75
2021/12/26 09:42:09;;;;;;;16.30;14.30;;;8.90;74.90;;;-142.21;100.00;112049.66;5118613;28;20445;-74
2021/12/26 09:44:38;;;;;;;15.30;13.77;;;8.90;74.90;;;-142.21;100.00;112049.66;5114001;27;20442;-74
2021/12/26 09:47:07;;;;;;;14.97;13.40;;;8.90;76.00;;;-142.21;100.00;112049.66;5113652;27;20511;-74
2021/12/26 09:49:36;;;;;;;14.60;13.10;;;8.90;75.10;;;-142.21;100.00;112049.66;5114055;27;20453;-75
2021/12/26 09:52:03;;;;;;;15.27;13.77;;;8.90;75.30;;;-142.21;100.00;112049.66;5105725;28;20508;-75
2021/12/26 09:54:31;;;;;;;16.13;14.40;;;8.90;75.00;;;-142.21;100.00;112049.66;5112830;27;20489;-74
2021/12/26 09:56:59;;;;;;;16.90;15.03;;;8.90;74.90;;;-142.21;100.00;112049.66;5111643;27;20453;-75
2021/12/26 09:59:27;;;;;;;15.03;13.43;;;8.90;75.50;;;-142.21;100.00;112049.66;5076282;28;20937;-75